sensor_id;sensor_type;location;lat;lon;timestamp;P1;durP1;ratioP1;P2;durP2;ratioP2
21743;SDS011;11034;48.556;9.342;2023-04-04T04:47:33;5.78;;;3.35;;
21743;SDS011;11034;48.556;9.342;2023-04-04T04:50:01;9.00;;;3.58;;
21743;SDS011;11034;48.556;9.342;2023-04-04T04:52:29;8.60;;;3.50;;
21743;SDS011;11034;48.556;9.342;2023-04-04T04:54:57;7.70;;;3.40;;
21743;SDS011;11034;48.556;9.342;2023-04-04T04:57:26;6.95;;;4.00;;
21743;SDS011;11034;48.556;9.342;2023-04-04T04:59:54;6.28;;;3.80;;
21743;SDS011;11034;48.556;9.342;2023-04-04T05:02:22;5.50;;;3.42;;
21743;SDS011;11034;48.556;9.342;2023-04-04T05:04:52;4.03;;;3.00;;
21743;SDS011;11034;48.556;9.342;2023-04-04T05:07:19;6.70;;;3.35;;
21743;SDS011;11034;48.556;9.342;2023-04-04T05:09:48;5.40;;;3.45;;
21743;SDS011;11034;48.556;9.342;2023-04-04T05:12:17;7.70;;;4.05;;
21743;SDS011;11034;48.556;9.342;2023-04-04T05:14:45;20.50;;;10.30;;
21743;SDS011;11034;48.556;9.342;2023-04-04T05:17:13;16.63;;;10.05;;
21743;SDS011;11034;48.556;9.342;2023-04-04T05:19:41;13.40;;;5.43;;
21743;SDS011;11034;48.556;9.342;2023-04-04T05:22:10;9.82;;;4.35;;
21743;SDS011;11034;48.556;9.342;2023-04-04T05:24:38;9.30;;;3.72;;
21743;SDS011;11034;48.556;9.342;2023-04-04T05:27:08;6.13;;;3.38;;
21743;SDS011;11034;48.556;9.342;2023-04-04T05:29:36;5.43;;;3.47;;
21743;SDS011;11034;48.556;9.342;2023-04-04T05:32:04;4.55;;;2.97;;
21743;SDS011;11034;48.556;9.342;2023-04-04T05:34:32;5.78;;;3.42;;
21743;SDS011;11034;48.556;9.342;2023-04-04T05:37:00;7.07;;;3.20;;
21743;SDS011;11034;48.556;9.342;2023-04-04T05:39:29;5.15;;;2.95;;
21743;SDS011;11034;48.556;9.342;2023-04-04T05:41:57;4.50;;;3.00;;
21743;SDS011;11034;48.556;9.342;2023-04-04T05:44:25;6.78;;;3.90;;
21743;SDS011;11034;48.556;9.342;2023-04-04T05:46:53;7.95;;;3.35;;
21743;SDS011;11034;48.556;9.342;2023-04-04T05:49:22;5.25;;;2.88;;
21743;SDS011;11034;48.556;9.342;2023-04-04T05:51:50;7.47;;;3.20;;
21743;SDS011;11034;48.556;9.342;2023-04-04T05:54:18;6.10;;;3.00;;
21743;SDS011;11034;48.556;9.342;2023-04-04T05:56:47;5.70;;;2.75;;
21743;SDS011;11034;48.556;9.342;2023-04-04T05:59:15;5.57;;;2.92;;
21743;SDS011;11034;48.556;9.342;2023-04-04T06:01:44;5.22;;;2.83;;
21743;SDS011;11034;48.556;9.342;2023-04-04T06:04:12;4.65;;;2.85;;
21743;SDS011;11034;48.556;9.342;2023-04-04T06:06:40;8.25;;;3.40;;
21743;SDS011;11034;48.556;9.342;2023-04-04T06:09:08;5.97;;;3.13;;
21743;SDS011;11034;48.556;9.342;2023-04-04T06:11:36;4.82;;;3.00;;
21743;SDS011;11034;48.556;9.342;2023-04-04T06:14:05;4.38;;;2.72;;
21743;SDS011;11034;48.556;9.342;2023-04-04T06:16:34;5.68;;;3.13;;
21743;SDS011;11034;48.556;9.342;2023-04-04T06:19:02;8.23;;;3.13;;
21743;SDS011;11034;48.556;9.342;2023-04-04T06:21:30;9.13;;;2.80;;
21743;SDS011;11034;48.556;9.342;2023-04-04T06:23:58;6.80;;;3.05;;
21743;SDS011;11034;48.556;9.342;2023-04-04T06:26:26;5.97;;;3.42;;
21743;SDS011;11034;48.556;9.342;2023-04-04T06:28:54;6.88;;;3.17;;
21743;SDS011;11034;48.556;9.342;2023-04-04T06:31:24;4.97;;;3.15;;
21743;SDS011;11034;48.556;9.342;2023-04-04T06:33:52;5.60;;;3.17;;
21743;SDS011;11034;48.556;9.342;2023-04-04T06:36:20;4.53;;;2.63;;
21743;SDS011;11034;48.556;9.342;2023-04-04T06:38:48;5.80;;;2.25;;
21743;SDS011;11034;48.556;9.342;2023-04-04T06:41:16;4.65;;;2.28;;
21743;SDS011;11034;48.556;9.342;2023-04-04T06:43:44;5.75;;;2.90;;
21743;SDS011;11034;48.556;9.342;2023-04-04T14:02:32;10.63;;;3.40;;
21743;SDS011;11034;48.556;9.342;2023-04-04T14:05:00;6.32;;;3.42;;
21743;SDS011;11034;48.556;9.342;2023-04-04T14:07:28;5.72;;;3.58;;
21743;SDS011;11034;48.556;9.342;2023-04-04T14:09:55;5.68;;;3.20;;
21743;SDS011;11034;48.556;9.342;2023-04-04T14:12:24;5.40;;;3.53;;
21743;SDS011;11034;48.556;9.342;2023-04-04T14:14:52;6.95;;;3.63;;
21743;SDS011;11034;48.556;9.342;2023-04-04T14:17:20;9.55;;;3.55;;
21743;SDS011;11034;48.556;9.342;2023-04-04T14:19:49;5.68;;;3.60;;
21743;SDS011;11034;48.556;9.342;2023-04-04T14:22:17;8.63;;;3.45;;
21743;SDS011;11034;48.556;9.342;2023-04-04T14:24:45;4.60;;;3.22;;
21743;SDS011;11034;48.556;9.342;2023-04-04T14:27:13;7.00;;;3.63;;
21743;SDS011;11034;48.556;9.342;2023-04-04T14:29:42;4.40;;;3.05;;
21743;SDS011;11034;48.556;9.342;2023-04-04T14:32:10;5.75;;;3.45;;
21743;SDS011;11034;48.556;9.342;2023-04-04T14:34:38;7.20;;;3.22;;
21743;SDS011;11034;48.556;9.342;2023-04-04T14:37:08;4.47;;;3.08;;
21743;SDS011;11034;48.556;9.342;2023-04-04T14:39:35;5.75;;;3.45;;
21743;SDS011;11034;48.556;9.342;2023-04-04T14:42:04;7.20;;;3.53;;
21743;SDS011;11034;48.556;9.342;2023-04-04T14:44:32;5.70;;;3.28;;
21743;SDS011;11034;48.556;9.342;2023-04-04T14:47:00;7.57;;;3.40;;
21743;SDS011;11034;48.556;9.342;2023-04-04T14:49:28;6.45;;;3.38;;
21743;SDS011;11034;48.556;9.342;2023-04-04T14:51:56;6.38;;;3.20;;
21743;SDS011;11034;48.556;9.342;2023-04-04T14:54:26;6.95;;;3.50;;
21743;SDS011;11034;48.556;9.342;2023-04-04T14:56:54;7.03;;;3.35;;
21743;SDS011;11034;48.556;9.342;2023-04-04T14:59:23;7.95;;;3.95;;
21743;SDS011;11034;48.556;9.342;2023-04-04T15:01:51;6.30;;;3.20;;
21743;SDS011;11034;48.556;9.342;2023-04-04T15:04:19;3.72;;;2.72;;
21743;SDS011;11034;48.556;9.342;2023-04-04T15:06:47;7.57;;;3.38;;
21743;SDS011;11034;48.556;9.342;2023-04-04T15:09:15;5.80;;;3.20;;
21743;SDS011;11034;48.556;9.342;2023-04-04T15:11:45;5.03;;;3.10;;
21743;SDS011;11034;48.556;9.342;2023-04-04T15:14:14;6.68;;;3.30;;
21743;SDS011;11034;48.556;9.342;2023-04-04T15:16:42;7.30;;;3.10;;
21743;SDS011;11034;48.556;9.342;2023-04-04T15:19:10;6.97;;;3.10;;
21743;SDS011;11034;48.556;9.342;2023-04-04T15:21:39;7.25;;;3.42;;
21743;SDS011;11034;48.556;9.342;2023-04-04T15:24:07;4.90;;;3.15;;
21743;SDS011;11034;48.556;9.342;2023-04-04T15:26:35;5.88;;;3.05;;
21743;SDS011;11034;48.556;9.342;2023-04-04T15:29:04;6.38;;;3.50;;
21743;SDS011;11034;48.556;9.342;2023-04-04T15:31:32;5.57;;;3.53;;
21743;SDS011;11034;48.556;9.342;2023-04-04T15:34:01;4.20;;;3.17;;
21743;SDS011;11034;48.556;9.342;2023-04-04T15:36:29;5.55;;;3.28;;
21743;SDS011;11034;48.556;9.342;2023-04-04T15:38:59;5.03;;;3.20;;
21743;SDS011;11034;48.556;9.342;2023-04-04T15:41:27;5.82;;;3.13;;
21743;SDS011;11034;48.556;9.342;2023-04-04T15:43:55;5.00;;;2.80;;
21743;SDS011;11034;48.556;9.342;2023-04-04T15:46:25;6.20;;;3.28;;
21743;SDS011;11034;48.556;9.342;2023-04-04T15:48:53;6.97;;;3.47;;
21743;SDS011;11034;48.556;9.342;2023-04-04T15:51:21;5.53;;;2.95;;
21743;SDS011;11034;48.556;9.342;2023-04-04T15:53:52;6.28;;;3.10;;
21743;SDS011;11034;48.556;9.342;2023-04-04T15:56:20;5.10;;;2.70;;
21743;SDS011;11034;48.556;9.342;2023-04-04T15:58:48;6.00;;;3.25;;
21743;SDS011;11034;48.556;9.342;2023-04-04T16:01:16;3.97;;;2.80;;
21743;SDS011;11034;48.556;9.342;2023-04-04T16:03:46;5.30;;;3.08;;
21743;SDS011;11034;48.556;9.342;2023-04-04T16:06:14;4.75;;;3.42;;
21743;SDS011;11034;48.556;9.342;2023-04-04T16:08:42;4.68;;;3.53;;
21743;SDS011;11034;48.556;9.342;2023-04-04T16:11:10;6.95;;;3.72;;
21743;SDS011;11034;48.556;9.342;2023-04-04T16:13:38;5.18;;;2.95;;
21743;SDS011;11034;48.556;9.342;2023-04-04T16:16:06;6.35;;;3.33;;
21743;SDS011;11034;48.556;9.342;2023-04-04T16:18:34;3.95;;;2.75;;
21743;SDS011;11034;48.556;9.342;2023-04-04T16:21:04;5.20;;;3.17;;
21743;SDS011;11034;48.556;9.342;2023-04-04T16:23:32;4.90;;;3.00;;
21743;SDS011;11034;48.556;9.342;2023-04-04T16:26:01;5.75;;;2.85;;
21743;SDS011;11034;48.556;9.342;2023-04-04T16:28:29;5.07;;;3.10;;
21743;SDS011;11034;48.556;9.342;2023-04-04T16:30:57;6.75;;;3.40;;
21743;SDS011;11034;48.556;9.342;2023-04-04T16:33:25;4.80;;;3.10;;
21743;SDS011;11034;48.556;9.342;2023-04-04T16:35:53;5.13;;;2.95;;
21743;SDS011;11034;48.556;9.342;2023-04-04T16:38:23;4.10;;;2.97;;
21743;SDS011;11034;48.556;9.342;2023-04-04T16:40:51;4.88;;;3.10;;
21743;SDS011;11034;48.556;9.342;2023-04-04T16:43:19;5.32;;;3.45;;
21743;SDS011;11034;48.556;9.342;2023-04-04T16:45:47;7.07;;;3.65;;
21743;SDS011;11034;48.556;9.342;2023-04-04T16:48:15;7.20;;;3.05;;
21743;SDS011;11034;48.556;9.342;2023-04-04T16:50:43;6.68;;;3.53;;
21743;SDS011;11034;48.556;9.342;2023-04-04T16:53:11;7.97;;;3.47;;
21743;SDS011;11034;48.556;9.342;2023-04-04T16:55:40;5.20;;;2.80;;
21743;SDS011;11034;48.556;9.342;2023-04-04T16:58:08;5.65;;;3.10;;
21743;SDS011;11034;48.556;9.342;2023-04-04T17:00:36;7.68;;;2.88;;
21743;SDS011;11034;48.556;9.342;2023-04-04T17:03:05;5.85;;;3.40;;
21743;SDS011;11034;48.556;9.342;2023-04-04T17:05:33;4.72;;;3.05;;
21743;SDS011;11034;48.556;9.342;2023-04-04T17:08:01;4.53;;;2.90;;
21743;SDS011;11034;48.556;9.342;2023-04-04T17:10:29;4.40;;;2.90;;
21743;SDS011;11034;48.556;9.342;2023-04-04T17:12:59;5.55;;;2.97;;
21743;SDS011;11034;48.556;9.342;2023-04-04T17:15:27;5.65;;;3.20;;
21743;SDS011;11034;48.556;9.342;2023-04-04T17:17:55;5.32;;;3.05;;
21743;SDS011;11034;48.556;9.342;2023-04-04T17:20:23;5.50;;;3.03;;
21743;SDS011;11034;48.556;9.342;2023-04-04T17:22:55;7.15;;;3.58;;
21743;SDS011;11034;48.556;9.342;2023-04-04T17:25:23;4.97;;;2.88;;
21743;SDS011;11034;48.556;9.342;2023-04-04T17:27:54;6.60;;;2.85;;
21743;SDS011;11034;48.556;9.342;2023-04-04T17:30:23;5.47;;;3.17;;
21743;SDS011;11034;48.556;9.342;2023-04-04T17:32:51;5.53;;;3.03;;
21743;SDS011;11034;48.556;9.342;2023-04-04T17:35:20;7.88;;;3.15;;
21743;SDS011;11034;48.556;9.342;2023-04-04T17:37:48;5.53;;;3.20;;
21743;SDS011;11034;48.556;9.342;2023-04-04T17:40:17;4.97;;;2.90;;
21743;SDS011;11034;48.556;9.342;2023-04-04T17:42:46;4.97;;;3.03;;
21743;SDS011;11034;48.556;9.342;2023-04-04T17:45:14;6.22;;;3.40;;
21743;SDS011;11034;48.556;9.342;2023-04-04T17:47:45;7.20;;;3.08;;
21743;SDS011;11034;48.556;9.342;2023-04-04T17:50:13;5.45;;;3.10;;
21743;SDS011;11034;48.556;9.342;2023-04-04T17:52:41;8.38;;;3.22;;
21743;SDS011;11034;48.556;9.342;2023-04-04T17:55:09;12.25;;;6.93;;
21743;SDS011;11034;48.556;9.342;2023-04-04T17:57:37;38.22;;;22.23;;
21743;SDS011;11034;48.556;9.342;2023-04-04T18:00:06;23.27;;;12.70;;
21743;SDS011;11034;48.556;9.342;2023-04-04T18:02:36;37.97;;;17.23;;
21743;SDS011;11034;48.556;9.342;2023-04-04T18:05:06;24.75;;;10.77;;
21743;SDS011;11034;48.556;9.342;2023-04-04T18:07:37;10.45;;;4.78;;
21743;SDS011;11034;48.556;9.342;2023-04-04T18:10:06;13.85;;;8.07;;
21743;SDS011;11034;48.556;9.342;2023-04-04T18:12:34;8.60;;;5.63;;
21743;SDS011;11034;48.556;9.342;2023-04-04T18:15:04;9.18;;;4.70;;
21743;SDS011;11034;48.556;9.342;2023-04-04T18:17:33;8.00;;;3.50;;
21743;SDS011;11034;48.556;9.342;2023-04-04T18:20:01;5.88;;;3.85;;
21743;SDS011;11034;48.556;9.342;2023-04-04T18:22:32;9.73;;;3.88;;
21743;SDS011;11034;48.556;9.342;2023-04-04T18:25:00;6.97;;;3.65;;
21743;SDS011;11034;48.556;9.342;2023-04-04T18:27:29;4.82;;;3.40;;
21743;SDS011;11034;48.556;9.342;2023-04-04T18:29:57;7.30;;;4.20;;
21743;SDS011;11034;48.556;9.342;2023-04-04T18:32:25;6.40;;;3.63;;
21743;SDS011;11034;48.556;9.342;2023-04-04T18:34:54;9.93;;;4.20;;
21743;SDS011;11034;48.556;9.342;2023-04-04T18:37:22;8.43;;;3.65;;
21743;SDS011;11034;48.556;9.342;2023-04-04T18:39:52;8.75;;;4.30;;
21743;SDS011;11034;48.556;9.342;2023-04-04T18:42:20;7.72;;;4.50;;
21743;SDS011;11034;48.556;9.342;2023-04-04T18:44:50;6.40;;;3.75;;
21743;SDS011;11034;48.556;9.342;2023-04-04T18:47:19;5.95;;;3.88;;
21743;SDS011;11034;48.556;9.342;2023-04-04T18:49:47;7.78;;;3.80;;
21743;SDS011;11034;48.556;9.342;2023-04-04T18:52:15;7.38;;;3.88;;
21743;SDS011;11034;48.556;9.342;2023-04-04T18:54:43;7.90;;;3.95;;
21743;SDS011;11034;48.556;9.342;2023-04-04T18:57:13;9.18;;;4.15;;
21743;SDS011;11034;48.556;9.342;2023-04-04T18:59:41;9.65;;;5.22;;
21743;SDS011;11034;48.556;9.342;2023-04-04T19:02:09;10.73;;;6.32;;
21743;SDS011;11034;48.556;9.342;2023-04-04T19:04:38;10.85;;;5.68;;
21743;SDS011;11034;48.556;9.342;2023-04-04T19:07:07;9.70;;;5.70;;
21743;SDS011;11034;48.556;9.342;2023-04-04T19:09:37;9.60;;;5.75;;
21743;SDS011;11034;48.556;9.342;2023-04-04T19:12:08;9.35;;;4.80;;
21743;SDS011;11034;48.556;9.342;2023-04-04T19:14:37;17.95;;;10.55;;
21743;SDS011;11034;48.556;9.342;2023-04-04T19:17:05;22.67;;;12.07;;
21743;SDS011;11034;48.556;9.342;2023-04-04T19:19:35;12.48;;;7.50;;
21743;SDS011;11034;48.556;9.342;2023-04-04T19:22:03;13.18;;;6.95;;
21743;SDS011;11034;48.556;9.342;2023-04-04T19:24:31;7.47;;;5.28;;
21743;SDS011;11034;48.556;9.342;2023-04-04T19:26:59;8.82;;;5.90;;
21743;SDS011;11034;48.556;9.342;2023-04-04T19:29:28;7.57;;;4.70;;
21743;SDS011;11034;48.556;9.342;2023-04-04T19:32:01;7.15;;;4.60;;
21743;SDS011;11034;48.556;9.342;2023-04-04T19:34:37;7.57;;;4.75;;
21743;SDS011;11034;48.556;9.342;2023-04-04T19:37:05;8.73;;;4.35;;
21743;SDS011;11034;48.556;9.342;2023-04-04T19:39:35;8.88;;;5.05;;
21743;SDS011;11034;48.556;9.342;2023-04-04T19:42:04;8.32;;;4.50;;
21743;SDS011;11034;48.556;9.342;2023-04-04T19:44:34;6.13;;;4.15;;
21743;SDS011;11034;48.556;9.342;2023-04-04T19:47:06;15.18;;;7.90;;
21743;SDS011;11034;48.556;9.342;2023-04-04T19:49:36;12.63;;;7.53;;
21743;SDS011;11034;48.556;9.342;2023-04-04T19:52:05;21.23;;;10.70;;
21743;SDS011;11034;48.556;9.342;2023-04-04T19:54:35;15.68;;;9.43;;
21743;SDS011;11034;48.556;9.342;2023-04-04T19:57:08;8.95;;;5.35;;
